Time;durP1;ratioP1;P1;durP2;ratioP2;P2;SDS_P1;SDS_P2;PMS_P1;PMS_P2;Temp;Humidity;BMP_temperature;BMP_pressure;BME280_temperature;BME280_humidity;BME280_pressure;Samples;Min_cycle;Max_cycle;Signal;HPM_P1;HPM_P2
2021/12/12 00:01:21;;;;;;;7.15;6.40;;;;;;;7.26;84.18;99990.00;1722110;82;20915;-53
2021/12/12 00:03:52;;;;;;;5.15;4.65;;;;;;;7.26;84.22;99999.38;1720841;82;21085;-55
2021/12/12 00:06:22;;;;;;;4.70;4.35;;;;;;;7.25;84.16;100019.91;1721007;82;21360;-55
2021/12/12 00:08:57;;;;;;;6.35;5.72;;;;;;;7.24;84.18;100028.86;1720250;82;21081;-56
2021/12/12 00:11:27;;;;;;;5.33;4.83;;;;;;;7.23;84.17;100032.46;1717995;82;21065;-56
2021/12/12 00:14:11;;;;;;;5.20;4.80;;;;;;;7.21;84.22;100026.30;1718130;82;21101;-53
2021/12/12 00:16:38;;;;;;;8.63;6.33;;;;;;;7.23;84.22;100046.34;1721748;80;21140;-57
2021/12/12 00:19:05;;;;;;;6.83;5.12;;;;;;;7.20;84.21;100053.99;1721085;82;21054;-57
2021/12/12 00:21:32;;;;;;;4.50;4.17;;;;;;;7.21;84.25;100058.43;1717882;82;21114;-58
2021/12/12 00:23:59;;;;;;;4.67;4.28;;;;;;;7.19;84.30;100053.11;1719943;82;21447;-56
2021/12/12 00:26:25;;;;;;;5.17;4.78;;;;;;;7.19;84.40;100054.45;1721279;82;21153;-58
2021/12/12 00:28:52;;;;;;;4.78;4.22;;;;;;;7.19;84.45;100043.74;1727850;81;22234;-57
2021/12/12 00:31:22;;;;;;;5.00;4.60;;;;;;;7.23;84.49;100050.36;1738031;81;21019;-55
2021/12/12 00:33:53;;;;;;;4.70;4.30;;;;;;;7.22;84.50;100048.14;1740295;81;21416;-56
2021/12/12 00:36:21;;;;;;;4.42;4.12;;;;;;;7.22;84.54;100044.13;1741400;81;20994;-57
2021/12/12 00:38:52;;;;;;;5.47;4.53;;;;;;;7.23;84.57;100047.19;1740941;81;20927;-58
2021/12/12 00:41:45;;;;;;;4.30;3.95;;;;;;;7.23;84.55;100048.06;1723172;81;21100;-57
2021/12/12 00:44:12;;;;;;;3.17;2.98;;;;;;;7.25;84.56;100046.69;1738881;81;21054;-57
2021/12/12 00:46:39;;;;;;;3.10;2.85;;;;;;;7.27;84.58;100052.00;1739858;81;20911;-57
2021/12/12 00:49:05;;;;;;;2.40;2.30;;;;;;;7.29;84.66;100036.77;1739020;81;21361;-57
2021/12/12 00:51:35;;;;;;;2.42;2.22;;;;;;;7.31;84.66;100051.88;1740022;81;21421;-56
2021/12/12 00:54:02;;;;;;;3.52;3.33;;;;;;;7.32;84.67;100044.23;1740612;81;21935;-57
2021/12/12 00:56:29;;;;;;;3.50;3.30;;;;;;;7.33;84.71;100041.98;1739676;81;20942;-54
2021/12/12 00:58:55;;;;;;;3.62;3.33;;;;;;;7.34;84.73;100045.53;1742019;81;21484;-55
2021/12/12 01:01:26;;;;;;;3.17;2.98;;;;;;;7.35;84.72;100045.49;1737912;81;21381;-56
2021/12/12 01:04:03;;;;;;;3.90;3.60;;;;;;;7.36;84.72;100050.39;1738785;81;21292;-57
2021/12/12 01:06:29;;;;;;;4.40;3.45;;;;;;;7.36;84.72;100057.08;1739075;81;21292;-56
2021/12/12 01:08:59;;;;;;;3.27;2.98;;;;;;;7.37;84.74;100062.40;1736910;81;21046;-57
2021/12/12 01:11:31;;;;;;;4.12;3.85;;;;;;;7.38;84.80;100061.48;1737896;81;21046;-55
2021/12/12 01:13:57;;;;;;;5.30;4.80;;;;;;;7.39;84.87;100059.22;1742313;81;21109;-56
2021/12/12 01:16:38;;;;;;;4.15;3.85;;;;;;;7.40;84.98;100054.25;1737677;81;21058;-58
2021/12/12 01:19:21;;;;;;;6.20;5.60;;;;;;;7.43;85.04;100054.17;1734855;81;22073;-58
2021/12/12 01:21:52;;;;;;;7.53;6.80;;;;;;;7.44;85.10;100060.41;1739963;81;20915;-58
2021/12/12 01:24:29;;;;;;;6.83;6.22;;;;;;;7.44;85.15;100063.96;1740113;81;20987;-57
2021/12/12 01:26:57;;;;;;;8.70;7.10;;;;;;;7.44;85.13;100066.64;1742525;81;20961;-56
2021/12/12 01:29:25;;;;;;;6.40;5.87;;;;;;;7.44;85.18;100063.08;1731325;81;21513;-55
2021/12/12 01:31:51;;;;;;;7.45;6.20;;;;;;;7.44;85.28;100067.98;1719560;82;21547;-55
2021/12/12 01:34:25;;;;;;;7.92;6.53;;;;;;;7.44;85.35;100072.00;1721486;82;21333;-57
2021/12/12 01:39:31;;;;;;;6.37;5.78;;;;;;;7.48;85.56;100071.00;1719317;82;21367;-58
2021/12/12 01:42:20;;;;;;;7.30;6.70;;;;;;;7.50;85.50;100081.63;1724445;82;21955;-56
2021/12/12 01:44:53;;;;;;;7.53;6.78;;;;;;;7.48;85.49;100081.70;1720897;82;22418;-56
2021/12/12 01:47:24;;;;;;;6.93;6.33;;;;;;;7.47;85.51;100083.97;1722751;82;21386;-58
2021/12/12 01:49:54;;;;;;;6.15;5.55;;;;;;;7.48;85.52;100084.84;1723588;82;20915;-55
2021/12/12 01:52:24;;;;;;;5.47;5.05;;;;;;;7.49;85.53;100082.55;1722844;82;20962;-58
2021/12/12 01:54:54;;;;;;;7.55;5.60;;;;;;;7.49;85.58;100082.55;1721264;82;21424;-57
2021/12/12 01:57:32;;;;;;;5.37;4.33;;;;;;;7.49;85.56;100086.11;1721683;82;21448;-58
2021/12/12 02:00:01;;;;;;;7.00;6.30;;;;;;;7.50;85.57;100093.23;1723918;82;21349;-57
2021/12/12 02:02:31;;;;;;;5.87;5.37;;;;;;;7.50;85.60;100089.21;1722439;82;21307;-55
2021/12/12 02:05:08;;;;;;;6.75;6.10;;;;;;;7.50;85.58;100088.33;1721755;82;21342;-56
2021/12/12 02:07:37;;;;;;;7.05;6.37;;;;;;;7.47;85.57;100089.32;1720567;82;21022;-55
2021/12/12 02:10:09;;;;;;;6.40;5.70;;;;;;;7.45;85.58;100091.16;1722312;82;21401;-56
2021/12/12 02:12:36;;;;;;;5.75;5.15;;;;;;;7.45;85.58;100100.54;1721537;82;21396;-58
2021/12/12 02:15:03;;;;;;;4.60;4.30;;;;;;;7.47;85.60;100098.70;1720323;82;20899;-58
2021/12/12 02:17:38;;;;;;;4.58;3.80;;;;;;;7.47;85.61;100096.02;1718443;82;21447;-57
2021/12/12 02:20:18;;;;;;;5.22;4.70;;;;;;;7.48;85.61;100108.95;1722285;82;21375;-55
2021/12/12 02:22:55;;;;;;;4.95;4.55;;;;;;;7.49;85.64;100105.32;1719309;82;21855;-59
2021/12/12 02:35:59;;;;;;;4.15;3.85;;;;;;;7.47;85.58;100094.68;1720084;82;21128;-56
2021/12/12 02:38:30;;;;;;;3.90;3.35;;;;;;;7.46;85.59;100102.30;1722076;82;21408;-60
2021/12/12 02:41:08;;;;;;;4.37;4.03;;;;;;;7.47;85.65;100100.50;1724154;82;20967;-58
2021/12/12 02:43:38;;;;;;;3.47;3.08;;;;;;;7.48;85.69;100092.88;1722355;82;20906;-58
2021/12/12 02:46:05;;;;;;;3.95;3.67;;;;;;;7.50;85.70;100097.70;1722411;82;20954;-58
2021/12/12 02:48:36;;;;;;;4.90;4.50;;;;;;;7.52;85.71;100098.55;1722018;82;21108;-58
2021/12/12 02:51:05;;;;;;;6.47;5.03;;;;;;;7.52;85.72;100098.55;1721828;82;20918;-57
2021/12/12 02:53:38;;;;;;;6.33;5.83;;;;;;;7.52;85.66;100104.78;1721190;82;21014;-58
2021/12/12 02:56:13;;;;;;;5.33;4.10;;;;;;;7.50;85.70;100103.94;1721144;82;21518;-57
2021/12/12 02:58:40;;;;;;;4.90;4.50;;;;;;;7.51;85.65;100099.47;1721617;81;21348;-58
2021/12/12 03:01:24;;;;;;;4.55;4.15;;;;;;;7.51;85.63;100104.82;1722526;82;21751;-56
2021/12/12 03:03:50;;;;;;;3.83;3.52;;;;;;;7.50;85.69;100099.05;1722955;82;21104;-56
2021/12/12 03:06:21;;;;;;;4.15;3.85;;;;;;;7.51;85.75;100100.34;1722052;82;21061;-56
2021/12/12 03:08:50;;;;;;;4.25;3.92;;;;;;;7.53;85.74;100107.88;1718904;82;21090;-55
2021/12/12 03:11:16;;;;;;;5.97;3.77;;;;;;;7.53;85.76;100102.52;1720103;82;20875;-56
2021/12/12 03:13:44;;;;;;;6.83;4.33;;;;;;;7.53;85.73;100107.00;1720094;82;21100;-55
2021/12/12 03:16:11;;;;;;;6.35;5.10;;;;;;;7.52;85.79;100103.90;1717420;82;21077;-55
2021/12/12 03:18:42;;;;;;;6.03;3.75;;;;;;;7.53;85.73;100111.02;1720510;82;20871;-57
2021/12/12 03:21:29;;;;;;;6.92;4.00;;;;;;;7.51;85.74;100110.17;1720654;82;21562;-56
2021/12/12 03:23:52;;;;;;;6.47;3.70;;;;;;;7.51;85.82;100115.08;1719992;82;21547;-56
2021/12/12 03:26:19;;;;;;;7.47;3.67;;;;;;;7.50;85.90;100124.03;1722227;82;20962;-56
2021/12/12 03:28:48;;;;;;;5.33;4.83;;;;;;;7.52;86.02;100116.83;1719120;82;21026;-58
2021/12/12 03:31:19;;;;;;;7.20;4.35;;;;;;;7.52;86.12;100116.83;1721370;82;21109;-56
2021/12/12 03:33:46;;;;;;;6.95;4.78;;;;;;;7.53;86.23;100121.27;1723361;82;21427;-57
2021/12/12 03:36:13;;;;;;;6.95;4.55;;;;;;;7.56;86.37;100127.01;1718928;82;20919;-55
2021/12/12 03:38:44;;;;;;;8.25;5.25;;;;;;;7.54;86.38;100124.83;1718749;82;21101;-58
2021/12/12 03:41:13;;;;;;;6.85;4.87;;;;;;;7.55;86.43;100126.13;1721372;82;21022;-58
2021/12/12 03:43:40;;;;;;;10.93;5.60;;;;;;;7.56;86.48;100122.99;1719062;82;20919;-56
2021/12/12 03:46:10;;;;;;;6.47;4.92;;;;;;;7.55;86.65;100125.25;1720709;82;21594;-57
2021/12/12 03:48:34;;;;;;;6.85;4.25;;;;;;;7.54;86.77;100124.38;1718630;82;21148;-57
2021/12/12 03:51:03;;;;;;;6.25;4.08;;;;;;;7.57;86.88;100132.30;1718278;82;21568;-56
2021/12/12 03:53:30;;;;;;;5.05;4.55;;;;;;;7.57;86.93;100130.95;1719443;82;21026;-57
2021/12/12 03:55:57;;;;;;;5.00;4.30;;;;;;;7.53;87.08;100125.30;1723230;81;20879;-56
2021/12/12 03:58:24;;;;;;;3.47;3.15;;;;;;;7.53;87.19;100119.94;1721398;82;21448;-56
2021/12/12 04:00:56;;;;;;;3.62;2.87;;;;;;;7.53;87.30;100125.30;1720108;82;21420;-56
2021/12/12 04:03:23;;;;;;;4.12;3.83;;;;;;;7.55;87.36;100131.95;1720811;82;21523;-56
2021/12/12 04:05:53;;;;;;;7.15;3.92;;;;;;;7.58;87.51;100130.50;1726220;82;20903;-56
2021/12/12 04:08:26;;;;;;;4.95;3.25;;;;;;;7.59;87.47;100129.11;1724793;82;21046;-55
2021/12/12 04:10:52;;;;;;;5.47;3.22;;;;;;;7.63;87.62;100129.91;1723135;82;21368;-57
2021/12/12 04:13:20;;;;;;;4.67;2.55;;;;;;;7.66;87.61;100131.60;1716658;82;22107;-56
2021/12/12 04:15:52;;;;;;;5.42;3.22;;;;;;;7.69;87.75;100132.40;1719525;82;21470;-57
2021/12/12 04:18:27;;;;;;;4.08;3.67;;;;;;;7.73;87.79;100119.80;1718704;82;21377;-55
2021/12/12 04:20:53;;;;;;;5.47;4.60;;;;;;;7.74;87.74;100131.78;1720421;82;21105;-58
2021/12/12 04:23:22;;;;;;;9.18;5.25;;;;;;;7.72;87.65;100128.30;1721671;82;21145;-57
2021/12/12 04:25:49;;;;;;;5.78;4.90;;;;;;;7.70;87.66;100130.14;1723701;82;20982;-57
2021/12/12 04:28:16;;;;;;;8.15;4.72;;;;;;;7.69;87.70;100128.84;1723254;82;21388;-58
2021/12/12 04:30:44;;;;;;;8.85;4.58;;;;;;;7.70;87.71;100127.92;1688643;83;21113;-56
2021/12/12 04:33:10;;;;;;;5.12;4.55;;;;;;;7.69;87.77;100128.84;1695375;83;20958;-56
2021/12/12 04:35:36;;;;;;;8.78;5.67;;;;;;;7.69;87.86;100127.50;1695137;83;20931;-54
2021/12/12 04:38:03;;;;;;;5.28;4.37;;;;;;;7.69;87.81;100131.52;1693869;83;21081;-58
2021/12/12 04:40:33;;;;;;;7.08;6.37;;;;;;;7.70;87.84;100134.62;1694466;83;21537;-57
2021/12/12 04:43:00;;;;;;;7.85;7.08;;;;;;;7.70;87.88;100135.95;1700079;83;21116;-56
2021/12/12 04:46:04;;;;;;;10.00;6.33;;;;;;;7.70;87.91;100141.31;1692658;83;20978;-56
2021/12/12 04:51:42;;;;;;;7.75;6.17;;;;;;;7.66;87.85;100138.30;1694402;83;20935;-58
2021/12/12 04:54:17;;;;;;;6.08;5.37;;;;;;;7.63;87.81;100133.05;1694787;83;21730;-57
2021/12/12 04:57:00;;;;;;;8.43;5.70;;;;;;;7.59;87.85;100138.95;1686829;83;20970;-55
2021/12/12 04:59:32;;;;;;;5.83;5.30;;;;;;;7.58;87.98;100138.07;1696036;83;21436;-58
2021/12/12 05:02:21;;;;;;;5.15;4.70;;;;;;;7.57;88.10;100147.03;1695024;83;21002;-57
2021/12/12 05:05:14;;;;;;;7.17;5.70;;;;;;;7.59;88.16;100145.19;1694241;83;21101;-58
2021/12/12 05:08:10;;;;;;;4.47;4.08;;;;;;;7.59;88.22;100146.98;1695205;83;21483;-58
2021/12/12 05:10:48;;;;;;;5.22;4.75;;;;;;;7.59;88.34;100142.97;1699446;83;20891;-56
2021/12/12 05:13:25;;;;;;;6.95;6.30;;;;;;;7.60;88.43;100135.36;1699110;83;20911;-55
2021/12/12 05:15:54;;;;;;;10.45;7.53;;;;;;;7.60;88.53;100128.66;1692451;83;20883;-56
2021/12/12 05:18:28;;;;;;;11.12;6.60;;;;;;;7.59;88.56;100132.25;1692190;83;21438;-58
2021/12/12 05:21:08;;;;;;;7.20;6.50;;;;;;;7.59;88.61;100138.49;1694003;83;21342;-55
2021/12/12 05:23:36;;;;;;;5.92;5.20;;;;;;;7.59;88.57;100141.63;1695037;83;21104;-58
2021/12/12 05:26:29;;;;;;;5.67;4.10;;;;;;;7.59;88.57;100151.89;1695366;83;21034;-56
2021/12/12 05:29:09;;;;;;;6.62;4.40;;;;;;;7.59;88.58;100145.19;1695440;83;21468;-58
2021/12/12 05:31:36;;;;;;;7.05;4.53;;;;;;;7.59;88.57;100147.87;1694412;83;20939;-54
2021/12/12 05:34:02;;;;;;;6.75;5.50;;;;;;;7.60;88.64;100147.41;1693478;83;21057;-57
2021/12/12 05:36:29;;;;;;;10.15;5.97;;;;;;;7.62;88.71;100146.03;1694663;83;20935;-57
2021/12/12 05:38:57;;;;;;;10.28;8.33;;;;;;;7.63;88.78;100157.16;1695267;83;20888;-58
2021/12/12 05:41:24;;;;;;;9.43;8.58;;;;;;;7.62;88.69;100157.62;1691293;83;21105;-54
2021/12/12 05:44:49;;;;;;;6.80;6.23;;;;;;;7.66;88.54;100161.07;1773691;78;22620;-58
2021/12/12 05:47:15;;;;;;;9.60;8.18;;;;;;;7.57;88.44;100173.82;1736717;80;21523;-57
2021/12/12 05:49:42;;;;;;;8.43;7.60;;;;;;;7.53;88.40;100180.20;1710647;81;21485;-57
2021/12/12 05:52:10;;;;;;;7.22;6.15;;;;;;;7.51;88.41;100180.70;1704089;81;21029;-57
2021/12/12 05:54:37;;;;;;;8.75;6.70;;;;;;;7.49;88.44;100177.64;1710414;81;21774;-57
2021/12/12 05:57:04;;;;;;;7.45;6.85;;;;;;;7.47;88.45;100181.73;1702787;81;21562;-56
2021/12/12 05:59:30;;;;;;;7.72;7.03;;;;;;;7.45;88.43;100180.89;1690570;83;21507;-55
2021/12/12 06:01:57;;;;;;;8.95;7.78;;;;;;;7.45;88.37;100185.37;1692057;83;21107;-56
2021/12/12 06:04:24;;;;;;;9.83;8.25;;;;;;;7.41;88.33;100197.95;1687465;84;21711;-56
2021/12/12 06:06:50;;;;;;;9.15;8.35;;;;;;;7.36;88.28;100199.02;1683141;84;21625;-57
2021/12/12 06:09:17;;;;;;;11.53;7.45;;;;;;;7.31;88.23;100203.17;1684219;84;21701;-57
2021/12/12 06:11:48;;;;;;;8.65;7.78;;;;;;;7.27;88.19;100195.25;1682708;84;21700;-57
2021/12/12 06:14:16;;;;;;;7.17;6.58;;;;;;;7.21;88.25;100206.56;1683546;83;22101;-57
2021/12/12 06:16:42;;;;;;;8.75;7.05;;;;;;;7.17;88.38;100210.69;1698609;83;20923;-57
2021/12/12 06:19:19;;;;;;;8.15;6.85;;;;;;;7.15;88.44;100220.55;1689633;83;21483;-57
2021/12/12 06:21:46;;;;;;;7.30;6.62;;;;;;;7.13;88.50;100215.27;1683462;83;21346;-57
2021/12/12 06:24:13;;;;;;;10.45;7.92;;;;;;;7.13;88.51;100221.08;1674627;83;21045;-56
2021/12/12 06:26:40;;;;;;;10.32;9.08;;;;;;;7.11;88.56;100217.55;1684632;83;21057;-55
2021/12/12 06:29:06;;;;;;;8.95;8.05;;;;;;;7.08;88.61;100221.19;1681882;84;21443;-56
2021/12/12 06:31:37;;;;;;;15.35;9.10;;;;;;;7.06;88.59;100224.84;1683063;84;20945;-54
2021/12/12 06:34:03;;;;;;;9.28;8.38;;;;;;;7.01;88.48;100224.06;1685268;84;20998;-57
2021/12/12 06:36:29;;;;;;;7.90;7.05;;;;;;;6.97;88.42;100225.08;1684632;83;21021;-53
2021/12/12 06:38:55;;;;;;;7.08;6.00;;;;;;;6.94;88.52;100230.05;1688814;84;21360;-56
2021/12/12 06:41:22;;;;;;;9.70;7.90;;;;;;;6.95;88.54;100234.94;1687998;84;20954;-54
2021/12/12 06:43:49;;;;;;;11.40;8.58;;;;;;;6.93;88.51;100235.43;1686041;83;20978;-54
2021/12/12 06:46:16;;;;;;;9.53;8.05;;;;;;;6.90;88.52;100225.67;1671852;84;21136;-56
2021/12/12 06:48:42;;;;;;;9.20;7.97;;;;;;;6.90;88.52;100239.52;1668372;84;21109;-55
2021/12/12 06:51:09;;;;;;;10.08;8.68;;;;;;;6.87;88.51;100238.27;1669290;84;21516;-54
2021/12/12 06:53:40;;;;;;;10.30;8.55;;;;;;;6.84;88.50;100243.23;1667548;84;21133;-53
2021/12/12 06:56:08;;;;;;;9.58;8.55;;;;;;;6.79;88.49;100250.52;1668546;84;21116;-54
2021/12/12 06:58:36;;;;;;;10.63;8.15;;;;;;;6.73;88.40;100247.97;1669971;84;21100;-56
2021/12/12 07:01:16;;;;;;;8.80;7.33;;;;;;;6.70;88.43;100254.30;1668106;84;21172;-54
2021/12/12 07:03:44;;;;;;;8.45;6.97;;;;;;;6.68;88.48;100253.44;1705753;81;21118;-54
2021/12/12 07:06:11;;;;;;;8.83;7.28;;;;;;;6.67;88.59;100261.05;1711417;82;20947;-58
2021/12/12 07:08:37;;;;;;;8.25;6.45;;;;;;;6.68;88.59;100256.58;1710612;82;20931;-55
2021/12/12 07:11:04;;;;;;;7.60;6.67;;;;;;;6.68;88.58;100252.56;1709027;82;21366;-59
2021/12/12 07:13:31;;;;;;;8.55;7.12;;;;;;;6.69;88.53;100262.35;1713292;82;21401;-56
2021/12/12 07:15:59;;;;;;;11.05;8.00;;;;;;;6.63;88.30;100263.84;1712285;81;21119;-54
2021/12/12 07:18:29;;;;;;;9.63;8.45;;;;;;;6.56;88.22;100270.23;1711233;82;20911;-57
2021/12/12 07:20:59;;;;;;;9.10;7.08;;;;;;;6.50;88.16;100262.36;1709311;82;20967;-53
2021/12/12 07:23:25;;;;;;;8.68;6.95;;;;;;;6.44;88.16;100264.28;1709661;82;20947;-54
2021/12/12 07:25:52;;;;;;;6.45;4.90;;;;;;;6.39;88.12;100262.60;1713504;82;20915;-53
2021/12/12 07:28:18;;;;;;;8.63;6.75;;;;;;;6.34;88.14;100262.73;1690575;82;21539;-56
2021/12/12 07:30:45;;;;;;;8.40;5.62;;;;;;;6.32;88.19;100266.34;1712662;82;20951;-56
2021/12/12 07:33:12;;;;;;;8.55;6.00;;;;;;;6.30;88.15;100272.17;1708458;82;21054;-54
2021/12/12 07:35:42;;;;;;;11.22;7.17;;;;;;;6.26;88.15;100265.15;1706881;82;21705;-54
2021/12/12 07:38:11;;;;;;;10.05;7.45;;;;;;;6.22;88.14;100264.33;1706172;82;21054;-57
2021/12/12 07:40:38;;;;;;;12.15;8.35;;;;;;;6.20;88.10;100268.85;1712911;81;21899;-55
2021/12/12 07:43:05;;;;;;;12.53;7.63;;;;;;;6.14;88.02;100275.64;1709253;82;21236;-54
2021/12/12 07:45:32;;;;;;;9.23;7.80;;;;;;;6.13;88.04;100278.34;1724659;82;21350;-56
2021/12/12 07:47:58;;;;;;;9.28;7.37;;;;;;;6.10;87.97;100269.08;1723885;82;21567;-54
2021/12/12 07:50:25;;;;;;;13.22;8.15;;;;;;;6.10;87.99;100281.11;1723865;80;20954;-57
2021/12/12 07:52:52;;;;;;;13.45;7.70;;;;;;;6.09;87.99;100276.22;1725243;82;21394;-54
2021/12/12 07:55:18;;;;;;;21.17;12.15;;;;;;;6.06;87.92;100285.17;1725320;82;20887;-54
2021/12/12 07:57:45;;;;;;;17.02;10.68;;;;;;;6.04;87.83;100292.78;1724048;82;21026;-55
2021/12/12 08:00:17;;;;;;;11.12;7.90;;;;;;;5.99;87.83;100287.56;1727306;82;20938;-54
2021/12/12 08:02:43;;;;;;;11.22;8.90;;;;;;;5.96;87.79;100285.39;1721289;82;20923;-54
2021/12/12 08:05:10;;;;;;;9.53;6.90;;;;;;;5.93;87.86;100289.48;1723844;82;22220;-56
2021/12/12 08:07:36;;;;;;;5.95;4.92;;;;;;;5.90;87.90;100282.41;1678745;82;21454;-57
2021/12/12 08:10:06;;;;;;;5.73;5.13;;;;;;;5.89;87.81;100285.98;1725318;82;20875;-54
2021/12/12 08:12:34;;;;;;;7.50;5.45;;;;;;;5.86;87.73;100275.34;1724779;82;20967;-54
2021/12/12 08:15:05;;;;;;;6.30;5.00;;;;;;;5.84;87.77;100288.30;1725369;82;21400;-53
2021/12/12 08:17:31;;;;;;;7.00;6.40;;;;;;;5.83;87.87;100290.09;1725720;82;22416;-54
2021/12/12 08:19:59;;;;;;;4.28;3.33;;;;;;;5.84;87.97;100284.30;1701053;82;20937;-55
2021/12/12 08:22:26;;;;;;;5.80;5.00;;;;;;;5.84;87.94;100283.84;1722912;82;21543;-56
2021/12/12 08:24:52;;;;;;;4.72;4.22;;;;;;;5.85;87.96;100294.08;1725361;82;21440;-57
2021/12/12 08:27:18;;;;;;;9.43;5.15;;;;;;;5.88;87.96;100295.36;1707684;82;20982;-56
2021/12/12 08:29:45;;;;;;;14.00;7.30;;;;;;;5.88;87.84;100300.25;1729546;82;21432;-54
2021/12/12 08:32:12;;;;;;;7.97;5.37;;;;;;;5.83;87.63;100298.11;1730345;82;21792;-56
2021/12/12 08:34:38;;;;;;;8.15;6.08;;;;;;;5.79;87.46;100295.05;1723558;82;21761;-56
2021/12/12 08:37:06;;;;;;;8.17;5.40;;;;;;;5.76;87.42;100302.27;1722162;82;21045;-56
2021/12/12 08:39:33;;;;;;;7.57;5.53;;;;;;;5.76;87.46;100299.60;1726095;80;20958;-54
2021/12/12 08:42:00;;;;;;;8.67;5.67;;;;;;;5.76;87.45;100304.94;1725611;82;21113;-55
2021/12/12 08:44:28;;;;;;;5.78;5.08;;;;;;;5.77;87.44;100301.37;1719071;82;21520;-55
2021/12/12 08:46:56;;;;;;;6.67;5.90;;;;;;;5.75;87.34;100300.51;1712991;82;20978;-54
2021/12/12 08:49:25;;;;;;;7.90;5.83;;;;;;;5.74;87.36;100300.96;1710533;82;21043;-55
2021/12/12 08:52:06;;;;;;;6.00;5.40;;;;;;;5.72;87.35;100302.77;1710037;82;21669;-53
2021/12/12 08:54:35;;;;;;;8.13;6.20;;;;;;;5.71;87.31;100307.69;1709954;82;21160;-55
2021/12/12 08:57:12;;;;;;;12.60;5.07;;;;;;;5.70;87.23;100308.59;1709414;82;21148;-56
2021/12/12 08:59:40;;;;;;;7.58;4.05;;;;;;;5.68;87.20;100302.42;1709789;82;20880;-56
2021/12/12 09:02:10;;;;;;;9.80;4.60;;;;;;;5.65;87.21;100301.14;1714820;82;20872;-56
2021/12/12 09:04:47;;;;;;;5.67;4.25;;;;;;;5.64;87.24;100296.25;1711192;81;21280;-62
2021/12/12 09:07:18;;;;;;;5.33;4.13;;;;;;;5.65;87.27;100300.69;1661019;85;21448;-56
2021/12/12 09:09:50;;;;;;;5.43;4.90;;;;;;;5.65;87.22;100298.47;1658905;85;21409;-55
2021/12/12 09:12:24;;;;;;;4.40;4.10;;;;;;;5.62;87.20;100297.18;1653264;85;21125;-55
2021/12/12 09:15:18;;;;;;;9.77;5.77;;;;;;;5.57;87.13;100293.73;1656215;85;21631;-55
2021/12/12 09:17:48;;;;;;;5.53;4.23;;;;;;;5.56;87.22;100291.97;1655304;85;21417;-54
2021/12/12 09:20:25;;;;;;;5.33;4.27;;;;;;;5.55;87.20;100295.55;1663666;85;21118;-56
2021/12/12 09:23:06;;;;;;;5.00;3.80;;;;;;;5.55;87.20;100293.76;1656730;85;21046;-56
2021/12/12 09:25:43;;;;;;;5.43;4.80;;;;;;;5.55;87.26;100295.55;1657455;85;21310;-55
2021/12/12 09:28:36;;;;;;;6.53;4.83;;;;;;;5.56;87.29;100293.30;1658016;85;20975;-57
2021/12/12 09:31:07;;;;;;;10.97;7.10;;;;;;;5.58;87.39;100292.38;1658474;85;21540;-58
2021/12/12 09:33:53;;;;;;;11.97;6.40;;;;;;;5.60;87.32;100289.69;1654435;85;21493;-58
2021/12/12 09:36:29;;;;;;;8.75;6.97;;;;;;;5.58;87.26;100295.05;1660530;85;20963;-57
2021/12/12 09:39:08;;;;;;;5.23;4.73;;;;;;;5.56;87.14;100291.97;1658451;85;21002;-56
2021/12/12 09:41:53;;;;;;;3.67;3.37;;;;;;;5.55;87.17;100291.54;1649163;85;21070;-58
2021/12/12 09:44:52;;;;;;;3.35;3.05;;;;;;;5.53;87.19;100285.38;1655664;85;21348;-57
2021/12/12 09:48:25;;;;;;;4.03;3.60;;;;;;;5.51;87.22;100276.51;1615831;85;21448;-55
2021/12/12 09:51:15;;;;;;;3.60;3.30;;;;;;;5.51;87.26;100280.52;1652672;85;21157;-57
2021/12/12 09:54:20;;;;;;;4.47;4.17;;;;;;;5.51;87.36;100280.06;1657530;85;21097;-55
2021/12/12 09:57:13;;;;;;;5.33;4.63;;;;;;;5.50;87.31;100286.30;1655076;85;20959;-57
2021/12/12 10:00:08;;;;;;;5.17;4.43;;;;;;;5.47;87.24;100286.80;1654438;85;21590;-55
2021/12/12 10:03:08;;;;;;;6.60;3.90;;;;;;;5.44;87.20;100288.22;1655736;85;21199;-58
2021/12/12 10:06:12;;;;;;;3.90;3.40;;;;;;;5.41;87.25;100286.93;1656088;85;21568;-58
2021/12/12 10:08:56;;;;;;;7.03;4.40;;;;;;;5.40;87.40;100290.50;1655919;85;21079;-58
2021/12/12 10:11:34;;;;;;;7.55;5.28;;;;;;;5.43;87.46;100283.78;1652426;85;21126;-58
2021/12/12 10:14:20;;;;;;;8.37;4.70;;;;;;;5.41;87.40;100294.48;1656014;85;21161;-56
2021/12/12 10:17:13;;;;;;;8.50;6.27;;;;;;;5.42;87.47;100282.02;1657322;85;22693;-58
2021/12/12 10:19:48;;;;;;;4.80;4.33;;;;;;;5.41;87.37;100278.92;1661920;85;21461;-58
2021/12/12 10:22:42;;;;;;;7.47;5.50;;;;;;;5.40;87.35;100284.71;1658003;85;21007;-58
2021/12/12 10:25:14;;;;;;;6.00;4.45;;;;;;;5.35;87.12;100273.70;1656701;85;21616;-56
2021/12/12 10:27:48;;;;;;;8.53;5.17;;;;;;;5.30;87.17;100271.98;1660905;85;20991;-55
2021/12/12 10:30:26;;;;;;;13.00;7.17;;;;;;;5.30;87.17;100273.77;1660471;84;21793;-56
2021/12/12 10:33:15;;;;;;;10.30;6.33;;;;;;;5.28;87.14;100272.91;1660689;84;21019;-55
2021/12/12 10:35:46;;;;;;;10.33;7.67;;;;;;;5.26;87.07;100269.42;1653195;84;21101;-59
2021/12/12 10:38:24;;;;;;;10.47;7.27;;;;;;;5.23;87.04;100269.01;1657072;85;21425;-58
2021/12/12 10:41:04;;;;;;;14.23;6.53;;;;;;;5.20;87.03;100277.06;1644642;85;21421;-55
2021/12/12 10:43:45;;;;;;;11.97;7.60;;;;;;;5.17;87.04;100278.92;1660762;85;21652;-55
2021/12/12 10:46:32;;;;;;;10.73;6.70;;;;;;;5.11;87.00;100277.22;1661090;84;20939;-58
2021/12/12 10:49:19;;;;;;;8.17;6.17;;;;;;;5.10;87.09;100286.17;1652876;85;21063;-55
2021/12/12 10:52:00;;;;;;;9.03;5.30;;;;;;;5.09;87.17;100282.19;1662261;85;21002;-58
2021/12/12 10:54:55;;;;;;;10.13;7.17;;;;;;;5.10;87.28;100283.95;1661046;83;22364;-56
2021/12/12 10:57:28;;;;;;;9.08;6.50;;;;;;;5.12;87.31;100273.66;1674682;84;21094;-57
2021/12/12 11:00:15;;;;;;;9.03;6.13;;;;;;;5.13;87.25;100271.41;1688413;83;20930;-54
2021/12/12 11:03:09;;;;;;;11.23;7.30;;;;;;;5.15;87.29;100277.61;1676077;84;21002;-57
2021/12/12 11:05:45;;;;;;;8.58;6.83;;;;;;;5.16;87.25;100270.48;1660599;85;20983;-56
2021/12/12 11:08:33;;;;;;;12.77;7.13;;;;;;;5.14;87.18;100265.17;1663699;85;21037;-55
2021/12/12 11:10:59;;;;;;;12.50;8.23;;;;;;;5.12;87.07;100261.64;1660437;85;21806;-56
2021/12/12 11:13:31;;;;;;;9.83;6.07;;;;;;;5.09;87.07;100258.17;1685938;83;20879;-58
2021/12/12 11:16:26;;;;;;;10.47;6.67;;;;;;;5.04;87.02;100256.90;1678466;84;20911;-56
2021/12/12 11:19:09;;;;;;;11.48;7.10;;;;;;;4.99;87.05;100252.56;1661476;85;20980;-56
2021/12/12 11:21:53;;;;;;;9.77;6.10;;;;;;;4.96;87.15;100248.16;1657272;85;21456;-55
2021/12/12 11:24:31;;;;;;;10.10;5.83;;;;;;;4.96;87.12;100244.15;1668510;83;21099;-56
2021/12/12 11:27:03;;;;;;;8.87;4.77;;;;;;;4.94;87.16;100241.95;1676623;84;21093;-57
2021/12/12 11:29:36;;;;;;;10.47;7.33;;;;;;;4.94;87.24;100244.17;1689626;83;21562;-57
2021/12/12 11:32:08;;;;;;;7.80;5.80;;;;;;;4.94;87.23;100237.95;1674177;84;21065;-54
2021/12/12 11:34:34;;;;;;;7.33;5.37;;;;;;;4.94;87.21;100229.95;1660790;85;21130;-55
2021/12/12 11:37:38;;;;;;;9.40;5.87;;;;;;;4.93;87.14;100237.56;1665018;83;21822;-55
2021/12/12 11:40:19;;;;;;;6.10;5.00;;;;;;;4.93;87.21;100233.07;1662928;84;21520;-56
2021/12/12 11:43:14;;;;;;;7.80;5.03;;;;;;;4.93;87.19;100236.22;1691617;82;20942;-55
2021/12/12 11:45:44;;;;;;;13.93;6.60;;;;;;;4.91;87.21;100228.69;1695958;83;20898;-55
2021/12/12 11:49:00;;;;;;;10.37;7.00;;;;;;;4.94;87.21;100225.95;1671156;83;21660;-55
2021/12/12 11:51:38;;;;;;;11.40;7.90;;;;;;;4.94;87.17;100225.50;1679103;84;22443;-55
2021/12/12 11:54:19;;;;;;;19.80;8.90;;;;;;;4.93;87.12;100227.73;1679625;82;20986;-55
2021/12/12 11:56:52;;;;;;;17.47;10.13;;;;;;;4.91;87.08;100232.25;1676579;84;21491;-57
2021/12/12 11:59:42;;;;;;;13.70;9.47;;;;;;;4.85;86.96;100233.66;1679063;84;20907;-57
2021/12/12 12:02:33;;;;;;;8.73;6.80;;;;;;;4.81;86.99;100237.75;1699386;83;21545;-56
2021/12/12 12:05:25;;;;;;;12.07;9.20;;;;;;;4.78;87.00;100241.80;1662980;84;21078;-56
2021/12/12 12:08:20;;;;;;;11.17;8.73;;;;;;;4.75;87.12;100230.75;1677495;84;21124;-55
2021/12/12 12:11:12;;;;;;;13.40;8.83;;;;;;;4.75;87.07;100229.42;1671909;83;21069;-56
2021/12/12 12:14:12;;;;;;;10.60;8.27;;;;;;;4.74;87.11;100230.32;1674061;84;21663;-55
2021/12/12 12:17:14;;;;;;;12.67;10.27;;;;;;;4.75;87.07;100225.42;1674084;84;21129;-58
2021/12/12 12:20:04;;;;;;;12.63;11.00;;;;;;;4.71;86.92;100225.48;1628525;86;21140;-56